Malargue, Argentina
Current Conditions -  °F | °C
As of 1:00 AM on Thursday 23 Oct 2014 (Local Time) from SCIC Reporting Station
Clear Clear  
Wind Chill: 63°   Ceiling: Unl
Heat Index: 63°   Visibility: 6mi
Dew Point: 54°   Wind: 3mph
Humidity: 72%   Direction: 160°SSE
Pressure: 29.94"   Gusts: NA
Location:  35.48°S, 69.6°W
Report Text: SCIC 230400Z AUTO 16003KT 9999 NCD 17/12 Q1014
Loading
Personal Weather Stations






























Interactive Weather Map
Tropical Storm Tracking
New forecast layout! Learn more

10-Day Weather Forecast

Advertisements
Track Severe Weather on mobile